createdAt,value
2019-05-13T00:00:53.927Z,0.00
2019-05-13T00:01:53.997Z,0.00
2019-05-13T00:02:54.233Z,0.00
2019-05-13T00:03:54.082Z,0.00
2019-05-13T00:04:53.201Z,0.00
2019-05-13T00:05:53.574Z,0.00
2019-05-13T00:06:55.194Z,0.00
2019-05-13T00:07:53.834Z,0.00
2019-05-13T00:08:54.217Z,0.00
2019-05-13T00:09:54.235Z,0.00
2019-05-13T00:10:53.982Z,0.00
2019-05-13T00:11:53.862Z,0.00
2019-05-13T00:12:53.779Z,0.00
2019-05-13T00:13:53.721Z,0.00
2019-05-13T00:14:53.515Z,0.00
2019-05-13T00:15:51.700Z,0.00
2019-05-13T00:16:53.678Z,0.00
2019-05-13T00:17:51.527Z,0.00
2019-05-13T00:18:53.484Z,0.00
2019-05-13T00:19:53.196Z,0.00
2019-05-13T00:20:51.413Z,0.00
2019-05-13T00:21:51.371Z,0.00
2019-05-13T00:22:53.613Z,0.00
2019-05-13T00:23:53.409Z,0.00
2019-05-13T00:24:51.280Z,0.00
2019-05-13T00:25:51.251Z,0.00
2019-05-13T00:26:53.198Z,0.00
2019-05-13T00:27:53.524Z,0.00
2019-05-13T00:28:53.304Z,0.00
2019-05-13T00:29:53.354Z,0.00
2019-05-13T00:30:51.072Z,0.00
2019-05-13T00:31:51.079Z,0.00
2019-05-13T00:32:51.004Z,0.00
2019-05-13T00:33:53.144Z,0.00
2019-05-13T00:34:53.280Z,0.00
2019-05-13T00:35:53.287Z,0.00
2019-05-13T00:37:05.939Z,0.00
2019-05-13T00:37:50.829Z,0.00
2019-05-13T00:38:53.287Z,0.00
2019-05-13T00:39:50.766Z,0.00
2019-05-13T00:40:50.741Z,0.00
2019-05-13T00:41:50.703Z,0.00
2019-05-13T00:42:50.680Z,0.00
2019-05-13T00:43:50.632Z,0.00
2019-05-13T00:44:50.593Z,0.00
2019-05-13T00:45:50.568Z,0.00
2019-05-13T00:46:50.528Z,0.00
2019-05-13T00:47:50.493Z,0.00
2019-05-13T00:48:50.463Z,0.00
2019-05-13T00:49:50.431Z,0.00
2019-05-13T00:50:50.416Z,0.00
2019-05-13T00:51:50.364Z,0.00
2019-05-13T00:52:50.330Z,0.00
2019-05-13T00:53:50.289Z,0.00
2019-05-13T00:54:50.258Z,0.00
2019-05-13T00:55:50.294Z,0.00
2019-05-13T00:56:50.193Z,0.00
2019-05-13T00:57:50.157Z,0.00
2019-05-13T00:58:50.124Z,0.00
2019-05-13T00:59:50.100Z,0.00
2019-05-13T01:00:50.062Z,0.00
2019-05-13T01:01:50.023Z,0.00
2019-05-13T01:02:50.033Z,0.00
2019-05-13T01:03:49.959Z,0.00
2019-05-13T01:04:49.922Z,0.00
2019-05-13T01:05:49.882Z,0.00
2019-05-13T01:06:49.864Z,0.00
2019-05-13T01:07:49.820Z,0.00
2019-05-13T01:08:49.783Z,0.00
2019-05-13T01:09:49.751Z,0.00
2019-05-13T01:10:49.720Z,0.00
2019-05-13T01:11:49.689Z,0.00
2019-05-13T01:12:49.664Z,0.00
2019-05-13T01:13:49.616Z,0.00
2019-05-13T01:14:49.627Z,0.00
2019-05-13T01:15:49.549Z,0.00
2019-05-13T01:16:49.513Z,0.00
2019-05-13T01:17:49.484Z,0.00
2019-05-13T01:18:49.444Z,0.00
2019-05-13T01:19:49.407Z,0.00
2019-05-13T01:20:49.377Z,0.00
2019-05-13T01:21:49.339Z,0.00
2019-05-13T01:22:49.304Z,0.00
2019-05-13T01:23:49.277Z,0.00
2019-05-13T01:24:49.236Z,0.00
2019-05-13T01:25:49.203Z,0.00
2019-05-13T01:26:49.167Z,0.00
2019-05-13T01:27:49.159Z,0.00
2019-05-13T01:28:49.140Z,0.00
2019-05-13T01:29:49.074Z,0.00
2019-05-13T01:30:49.075Z,0.00
2019-05-13T01:31:49.002Z,0.00
2019-05-13T01:32:48.968Z,0.00
2019-05-13T01:33:48.940Z,0.00
2019-05-13T01:34:48.906Z,0.00
2019-05-13T01:35:48.875Z,0.00
2019-05-13T01:36:48.863Z,0.00
2019-05-13T01:37:48.803Z,0.00
2019-05-13T01:38:48.759Z,0.00
2019-05-13T01:39:48.781Z,0.00
2019-05-13T01:40:48.699Z,0.00
2019-05-13T01:41:48.664Z,0.00
2019-05-13T01:42:48.625Z,0.00
2019-05-13T01:43:48.594Z,0.00
2019-05-13T01:44:48.565Z,0.00
2019-05-13T01:45:48.517Z,0.00
2019-05-13T01:46:48.497Z,0.00
2019-05-13T01:47:48.453Z,0.00
2019-05-13T01:48:48.420Z,0.00
2019-05-13T01:49:48.380Z,0.00
2019-05-13T01:50:48.347Z,0.00
2019-05-13T01:51:48.321Z,0.00
2019-05-13T01:52:48.276Z,0.00
2019-05-13T01:53:48.241Z,0.00
2019-05-13T01:54:48.208Z,0.00
2019-05-13T01:55:48.181Z,0.00
2019-05-13T01:56:48.139Z,0.00
2019-05-13T01:57:48.111Z,0.00
2019-05-13T01:58:48.075Z,0.00
2019-05-13T01:59:48.040Z,0.00
2019-05-13T02:00:51.475Z,0.00
2019-05-13T02:01:47.971Z,0.00
2019-05-13T02:02:47.933Z,0.00
2019-05-13T02:03:47.897Z,0.00
2019-05-13T02:04:47.863Z,0.00
2019-05-13T02:05:47.830Z,0.00
2019-05-13T02:06:47.801Z,0.00
2019-05-13T02:07:57.675Z,0.00
2019-05-13T02:08:47.723Z,0.00
2019-05-13T02:09:47.696Z,0.00
2019-05-13T02:10:47.656Z,0.00
2019-05-13T02:11:47.620Z,0.00
2019-05-13T02:12:47.594Z,0.00
2019-05-13T02:13:47.595Z,0.00
2019-05-13T02:14:47.526Z,0.00
2019-05-13T02:15:47.489Z,0.00
2019-05-13T02:16:47.457Z,0.00
2019-05-13T02:17:47.414Z,0.00
2019-05-13T02:18:47.386Z,0.00
2019-05-13T02:19:47.345Z,0.00
2019-05-13T02:20:47.313Z,0.00
2019-05-13T02:21:47.282Z,0.00
2019-05-13T02:22:47.283Z,0.00
2019-05-13T02:23:47.211Z,0.00
2019-05-13T02:24:47.186Z,0.00
2019-05-13T02:25:47.142Z,0.00
2019-05-13T02:26:47.107Z,0.00
2019-05-13T02:27:47.075Z,0.00
2019-05-13T02:28:47.046Z,0.00
2019-05-13T02:29:47.005Z,0.00
2019-05-13T02:30:46.968Z,0.00
2019-05-13T02:31:52.049Z,0.00
2019-05-13T02:32:46.895Z,0.00
2019-05-13T02:33:46.871Z,0.00
2019-05-13T02:34:46.834Z,0.00
2019-05-13T02:35:46.792Z,0.00
2019-05-13T02:36:46.758Z,0.00
2019-05-13T02:37:46.728Z,0.00
2019-05-13T02:38:46.699Z,0.00
2019-05-13T02:39:46.661Z,0.00
2019-05-13T02:40:46.628Z,0.00
2019-05-13T02:41:46.591Z,0.00
2019-05-13T02:42:46.555Z,0.00
2019-05-13T02:43:46.522Z,0.00
2019-05-13T02:44:46.484Z,0.00
2019-05-13T02:45:46.454Z,0.00
2019-05-13T02:46:46.420Z,0.00
2019-05-13T02:47:46.396Z,0.00
2019-05-13T02:48:46.350Z,0.00
2019-05-13T02:49:46.312Z,0.00
2019-05-13T02:50:46.282Z,0.00
2019-05-13T02:51:46.244Z,0.00
2019-05-13T02:52:46.218Z,0.00
2019-05-13T02:53:46.179Z,0.00
2019-05-13T02:54:46.144Z,0.00
2019-05-13T02:55:46.105Z,0.00
2019-05-13T02:56:46.127Z,0.00
2019-05-13T02:57:46.030Z,0.00
2019-05-13T02:58:46.008Z,0.00
2019-05-13T02:59:45.969Z,0.00
2019-05-13T03:00:45.946Z,0.00
2019-05-13T03:01:45.901Z,0.00
2019-05-13T03:02:45.869Z,0.00
2019-05-13T03:03:45.831Z,0.00
2019-05-13T03:04:45.786Z,0.00
2019-05-13T03:05:45.773Z,0.00
2019-05-13T03:06:45.722Z,0.00
2019-05-13T03:07:45.690Z,0.00
2019-05-13T03:08:49.912Z,0.00
2019-05-13T03:09:45.621Z,0.00
2019-05-13T03:10:45.582Z,0.00
2019-05-13T03:11:45.550Z,0.00
2019-05-13T03:12:45.511Z,0.00
2019-05-13T03:13:45.475Z,0.00
2019-05-13T03:14:48.563Z,0.00
2019-05-13T03:15:45.405Z,0.00
2019-05-13T03:16:45.376Z,0.00
2019-05-13T03:17:45.343Z,0.00
2019-05-13T03:18:45.309Z,0.00
2019-05-13T03:19:45.282Z,0.00
2019-05-13T03:20:45.239Z,0.00
2019-05-13T03:21:45.203Z,0.00
2019-05-13T03:22:45.177Z,0.00
2019-05-13T03:23:45.135Z,0.00
2019-05-13T03:24:45.100Z,0.00
2019-05-13T03:25:45.061Z,0.00
2019-05-13T03:26:45.032Z,0.00
2019-05-13T03:27:44.998Z,0.00
2019-05-13T03:28:44.966Z,0.00
2019-05-13T03:29:44.922Z,0.00
2019-05-13T03:30:46.109Z,0.00
2019-05-13T03:31:46.999Z,0.00
2019-05-13T03:32:53.038Z,0.00
2019-05-13T03:33:47.000Z,0.00
2019-05-13T03:34:46.123Z,5.63
2019-05-13T03:35:46.072Z,5.63
2019-05-13T03:36:46.213Z,5.63
2019-05-13T03:37:44.645Z,5.63
2019-05-13T03:38:59.877Z,5.63
2019-05-13T03:39:44.572Z,5.63
2019-05-13T03:40:44.543Z,5.63
2019-05-13T03:41:44.503Z,11.25
2019-05-13T03:42:44.468Z,11.25
2019-05-13T03:43:44.457Z,11.25
2019-05-13T03:44:44.419Z,11.25
2019-05-13T03:45:44.370Z,11.25
2019-05-13T03:46:44.334Z,16.88
2019-05-13T03:47:44.300Z,16.88
2019-05-13T03:48:44.263Z,16.88
2019-05-13T03:49:44.240Z,22.50
2019-05-13T03:50:44.194Z,22.50
2019-05-13T03:51:44.178Z,22.50
2019-05-13T03:52:44.146Z,22.50
2019-05-13T03:53:44.089Z,28.13
2019-05-13T03:54:44.059Z,28.13
2019-05-13T03:55:44.025Z,28.13
2019-05-13T03:56:43.989Z,33.75
2019-05-13T03:57:43.946Z,33.75
2019-05-13T03:58:43.971Z,39.38
2019-05-13T03:59:44.029Z,39.38
2019-05-13T04:00:43.873Z,39.38
2019-05-13T04:01:43.805Z,45.00
2019-05-13T04:02:43.774Z,45.00
2019-05-13T04:03:44.396Z,45.00
2019-05-13T04:04:43.709Z,50.63
2019-05-13T04:05:44.106Z,50.63
2019-05-13T04:06:43.638Z,56.25
2019-05-13T04:07:43.689Z,56.25
2019-05-13T04:08:44.048Z,61.88
2019-05-13T04:09:43.533Z,61.88
2019-05-13T04:10:43.500Z,67.50
2019-05-13T04:11:43.467Z,67.50
2019-05-13T04:12:43.423Z,73.13
2019-05-13T04:13:43.597Z,73.13
2019-05-13T04:14:43.358Z,78.75
2019-05-13T04:15:43.325Z,78.75
2019-05-13T04:16:43.306Z,84.38
2019-05-13T04:17:43.255Z,90.00
2019-05-13T04:18:43.451Z,90.00
2019-05-13T04:19:43.180Z,95.63
2019-05-13T04:20:43.144Z,95.63
2019-05-13T04:21:43.273Z,101.25
2019-05-13T04:22:43.074Z,106.88
2019-05-13T04:23:43.275Z,106.88
2019-05-13T04:24:43.020Z,112.50
2019-05-13T04:25:44.680Z,112.50
2019-05-13T04:26:43.406Z,118.13
2019-05-13T04:27:43.074Z,118.13
2019-05-13T04:28:43.581Z,123.75
2019-05-13T04:29:43.310Z,123.75
2019-05-13T04:30:43.725Z,123.75
2019-05-13T04:31:42.754Z,129.38
2019-05-13T04:32:44.159Z,129.38
2019-05-13T04:33:43.014Z,129.38
2019-05-13T04:34:42.764Z,129.38
2019-05-13T04:35:42.835Z,129.38
2019-05-13T04:36:43.221Z,129.38
2019-05-13T04:37:43.231Z,129.38
2019-05-13T04:38:44.317Z,129.38
2019-05-13T04:39:51.271Z,129.38
2019-05-13T04:40:42.705Z,129.38
2019-05-13T04:41:42.597Z,135.00
2019-05-13T04:42:42.744Z,135.00
2019-05-13T04:43:43.474Z,135.00
2019-05-13T04:44:42.915Z,135.00
2019-05-13T04:45:43.158Z,135.00
2019-05-13T04:46:43.296Z,135.00
2019-05-13T04:47:43.151Z,140.63
2019-05-13T04:48:44.123Z,140.63
2019-05-13T04:49:42.980Z,140.63
2019-05-13T04:50:43.145Z,146.25
2019-05-13T04:51:42.276Z,146.25
2019-05-13T04:52:42.509Z,146.25
2019-05-13T04:53:42.556Z,151.88
2019-05-13T04:54:43.528Z,151.88
2019-05-13T04:55:42.903Z,151.88
2019-05-13T04:56:42.325Z,151.88
2019-05-13T04:57:42.397Z,157.50
2019-05-13T04:58:42.873Z,157.50
2019-05-13T04:59:44.530Z,157.50
2019-05-13T05:00:42.638Z,163.13
2019-05-13T05:01:48.825Z,163.13
2019-05-13T05:02:49.058Z,163.13
2019-05-13T05:03:45.698Z,163.13
2019-05-13T05:04:43.578Z,157.50
2019-05-13T05:05:42.152Z,163.13
2019-05-13T05:06:42.337Z,168.75
2019-05-13T05:07:42.144Z,163.13
2019-05-13T05:08:43.429Z,168.75
2019-05-13T05:10:10.219Z,174.38
2019-05-13T05:10:42.852Z,168.75
2019-05-13T05:11:42.574Z,168.75
2019-05-13T05:12:42.565Z,168.75
2019-05-13T05:13:42.849Z,168.75
2019-05-13T05:14:41.879Z,174.38
2019-05-13T05:15:41.831Z,180.00
2019-05-13T05:16:44.669Z,180.00
2019-05-13T05:17:43.068Z,185.63
2019-05-13T05:18:42.103Z,191.25
2019-05-13T05:19:44.960Z,191.25
2019-05-13T05:20:41.703Z,191.25
2019-05-13T05:21:41.722Z,196.88
2019-05-13T05:22:41.969Z,185.63
2019-05-13T05:23:42.270Z,191.25
2019-05-13T05:24:41.404Z,191.25
2019-05-13T05:25:41.629Z,191.25
2019-05-13T05:26:41.989Z,191.25
2019-05-13T05:27:42.024Z,202.50
2019-05-13T05:28:41.387Z,202.50
2019-05-13T05:29:42.211Z,202.50
2019-05-13T05:30:41.250Z,191.25
2019-05-13T05:31:41.431Z,191.25
2019-05-13T05:32:42.205Z,191.25
2019-05-13T05:33:41.232Z,191.25
2019-05-13T05:34:41.840Z,196.88
2019-05-13T05:35:42.714Z,196.88
2019-05-13T05:36:41.464Z,202.50
2019-05-13T05:37:41.626Z,196.88
2019-05-13T05:38:40.445Z,202.50
2019-05-13T05:39:42.029Z,225.00
2019-05-13T05:40:42.489Z,225.00
2019-05-13T05:41:42.196Z,225.00
2019-05-13T05:42:41.230Z,225.00
2019-05-13T05:43:44.829Z,230.63
2019-05-13T05:44:42.093Z,230.63
2019-05-13T05:45:41.274Z,219.38
2019-05-13T05:46:42.479Z,213.75
2019-05-13T05:47:41.900Z,219.38
2019-05-13T05:48:41.994Z,219.38
2019-05-13T05:49:41.075Z,219.38
2019-05-13T05:50:42.295Z,219.38
2019-05-13T05:51:41.878Z,219.38
2019-05-13T05:52:42.058Z,219.38
2019-05-13T05:53:42.234Z,230.63
2019-05-13T05:54:42.060Z,230.63
2019-05-13T05:55:41.192Z,225.00
2019-05-13T05:56:41.482Z,225.00
2019-05-13T05:57:41.822Z,225.00
2019-05-13T05:58:41.884Z,230.63
2019-05-13T05:59:41.829Z,225.00
2019-05-13T06:00:41.474Z,230.63
2019-05-13T06:01:41.594Z,225.00
2019-05-13T06:02:42.301Z,225.00
2019-05-13T06:03:41.751Z,230.63
2019-05-13T06:04:42.756Z,225.00
2019-05-13T06:05:41.776Z,225.00
2019-05-13T06:06:41.537Z,225.00
2019-05-13T06:07:39.459Z,225.00
2019-05-13T06:08:41.365Z,225.00
2019-05-13T06:09:39.387Z,225.00
2019-05-13T06:10:49.055Z,230.63
2019-05-13T06:11:41.597Z,230.63
2019-05-13T06:12:39.310Z,230.63
2019-05-13T06:13:39.439Z,236.25
2019-05-13T06:14:39.223Z,236.25
2019-05-13T06:15:39.186Z,241.88
2019-05-13T06:16:39.149Z,247.50
2019-05-13T06:17:41.244Z,253.13
2019-05-13T06:18:41.418Z,258.75
2019-05-13T06:19:39.085Z,264.38
2019-05-13T06:20:39.069Z,270.00
2019-05-13T06:21:39.003Z,286.88
2019-05-13T06:22:38.958Z,286.88
2019-05-13T06:23:38.916Z,298.13
2019-05-13T06:24:38.883Z,298.13
2019-05-13T06:25:38.843Z,298.13
2019-05-13T06:26:38.811Z,298.13
2019-05-13T06:27:38.780Z,298.13
2019-05-13T06:28:38.742Z,298.13
2019-05-13T06:29:38.751Z,298.13
2019-05-13T06:30:41.170Z,303.75
2019-05-13T06:31:38.651Z,309.38
2019-05-13T06:32:38.606Z,303.75
2019-05-13T06:33:38.583Z,309.38
2019-05-13T06:34:38.542Z,309.38
2019-05-13T06:35:41.716Z,309.38
2019-05-13T06:36:38.483Z,315.00
2019-05-13T06:37:38.443Z,309.38
2019-05-13T06:38:38.415Z,309.38
2019-05-13T06:39:38.377Z,298.13
2019-05-13T06:40:38.347Z,292.50
2019-05-13T06:41:38.326Z,292.50
2019-05-13T06:42:38.274Z,286.88
2019-05-13T06:43:38.242Z,286.88
2019-05-13T06:44:38.216Z,286.88
2019-05-13T06:45:38.174Z,281.25
2019-05-13T06:46:38.141Z,286.88
2019-05-13T06:47:38.144Z,292.50
2019-05-13T06:48:38.094Z,292.50
2019-05-13T06:49:38.044Z,286.88
2019-05-13T06:50:38.016Z,281.25
2019-05-13T06:51:37.981Z,286.88
2019-05-13T06:52:37.972Z,292.50
2019-05-13T06:53:37.919Z,286.88
2019-05-13T06:54:37.880Z,298.13
2019-05-13T06:55:37.846Z,303.75
2019-05-13T06:56:37.815Z,303.75
2019-05-13T06:57:37.775Z,309.38
2019-05-13T06:58:37.744Z,315.00
2019-05-13T06:59:37.713Z,331.88
2019-05-13T07:00:37.678Z,348.75
2019-05-13T07:01:37.646Z,354.38
2019-05-13T07:02:37.616Z,360.00
2019-05-13T07:03:37.583Z,354.38
2019-05-13T07:04:37.557Z,348.75
2019-05-13T07:05:37.516Z,337.50
2019-05-13T07:06:37.476Z,348.75
2019-05-13T07:07:37.450Z,337.50
2019-05-13T07:08:37.417Z,354.38
2019-05-13T07:09:37.379Z,354.38
2019-05-13T07:10:37.352Z,360.00
2019-05-13T07:11:37.346Z,360.00
2019-05-13T07:12:37.278Z,360.00
2019-05-13T07:13:37.248Z,354.38
2019-05-13T07:14:37.216Z,365.63
2019-05-13T07:15:37.181Z,365.63
2019-05-13T07:16:37.151Z,354.38
2019-05-13T07:17:37.114Z,360.00
2019-05-13T07:18:37.079Z,365.63
2019-05-13T07:19:37.055Z,371.25
2019-05-13T07:20:37.027Z,376.88
2019-05-13T07:21:36.979Z,371.25
2019-05-13T07:22:36.957Z,371.25
2019-05-13T07:23:36.917Z,360.00
2019-05-13T07:24:36.886Z,331.88
2019-05-13T07:25:36.853Z,315.00
2019-05-13T07:26:36.820Z,348.75
2019-05-13T07:27:36.787Z,354.38
2019-05-13T07:28:36.762Z,360.00
2019-05-13T07:29:36.735Z,348.75
2019-05-13T07:30:36.711Z,343.13
2019-05-13T07:31:36.665Z,348.75
2019-05-13T07:32:36.621Z,343.13
2019-05-13T07:33:36.651Z,337.50
2019-05-13T07:34:36.625Z,343.13
2019-05-13T07:35:38.091Z,348.75
2019-05-13T07:36:36.488Z,348.75
2019-05-13T07:37:36.456Z,348.75
2019-05-13T07:38:36.431Z,320.63
2019-05-13T07:39:36.391Z,337.50
2019-05-13T07:40:36.363Z,337.50
2019-05-13T07:41:39.436Z,360.00
2019-05-13T07:42:36.299Z,354.38
2019-05-13T07:43:36.262Z,354.38
2019-05-13T07:44:36.239Z,354.38
2019-05-13T07:45:36.199Z,331.88
2019-05-13T07:46:36.163Z,320.63
2019-05-13T07:47:36.133Z,331.88
2019-05-13T07:48:36.102Z,331.88
2019-05-13T07:49:36.070Z,315.00
2019-05-13T07:50:51.216Z,315.00
2019-05-13T07:51:36.004Z,309.38
2019-05-13T07:52:35.970Z,292.50
2019-05-13T07:53:35.939Z,292.50
2019-05-13T07:54:35.902Z,309.38
2019-05-13T07:55:35.877Z,298.13
2019-05-13T07:56:35.840Z,298.13
2019-05-13T07:57:35.813Z,298.13
2019-05-13T07:58:37.586Z,298.13
2019-05-13T07:59:35.742Z,292.50
2019-05-13T08:00:35.706Z,292.50
2019-05-13T08:01:35.675Z,286.88
2019-05-13T08:02:35.643Z,286.88
2019-05-13T08:03:35.614Z,286.88
2019-05-13T08:04:35.581Z,298.13
2019-05-13T08:05:35.550Z,298.13
2019-05-13T08:06:35.512Z,298.13
2019-05-13T08:07:35.486Z,292.50
2019-05-13T08:08:35.448Z,298.13
2019-05-13T08:09:35.416Z,303.75
2019-05-13T08:10:35.387Z,303.75
2019-05-13T08:11:53.691Z,303.75
2019-05-13T08:12:35.321Z,309.38
2019-05-13T08:13:35.295Z,309.38
2019-05-13T08:14:35.349Z,309.38
2019-05-13T08:15:35.228Z,320.63
2019-05-13T08:16:35.195Z,320.63
2019-05-13T08:17:35.160Z,331.88
2019-05-13T08:18:35.131Z,337.50
2019-05-13T08:19:35.092Z,343.13
2019-05-13T08:20:35.068Z,354.38
2019-05-13T08:21:35.026Z,354.38
2019-05-13T08:22:34.999Z,354.38
2019-05-13T08:23:34.965Z,360.00
2019-05-13T08:24:34.936Z,354.38
2019-05-13T08:25:34.911Z,360.00
2019-05-13T08:26:38.019Z,354.38
2019-05-13T08:27:35.223Z,354.38
2019-05-13T08:28:34.804Z,365.63
2019-05-13T08:29:34.774Z,371.25
2019-05-13T08:30:34.757Z,382.50
2019-05-13T08:31:34.715Z,388.13
2019-05-13T08:32:34.676Z,393.75
2019-05-13T08:33:34.653Z,388.13
2019-05-13T08:34:34.619Z,382.50
2019-05-13T08:35:34.581Z,382.50
2019-05-13T08:36:34.557Z,376.88
2019-05-13T08:37:34.521Z,376.88
2019-05-13T08:38:34.492Z,371.25
2019-05-13T08:39:38.325Z,382.50
2019-05-13T08:40:34.425Z,388.13
2019-05-13T08:41:34.398Z,388.13
2019-05-13T08:42:34.357Z,399.38
2019-05-13T08:43:34.334Z,410.63
2019-05-13T08:44:34.296Z,393.75
2019-05-13T08:45:34.265Z,371.25
2019-05-13T08:46:34.238Z,376.88
2019-05-13T08:47:34.204Z,410.63
2019-05-13T08:48:34.186Z,405.00
2019-05-13T08:49:34.146Z,399.38
2019-05-13T08:50:34.106Z,382.50
2019-05-13T08:51:34.927Z,354.38
2019-05-13T08:52:34.045Z,371.25
2019-05-13T08:53:34.090Z,382.50
2019-05-13T08:54:33.990Z,360.00
2019-05-13T08:55:33.947Z,376.88
2019-05-13T08:56:33.914Z,376.88
2019-05-13T08:57:33.949Z,388.13
2019-05-13T08:58:33.858Z,376.88
2019-05-13T08:59:33.821Z,365.63
2019-05-13T09:00:33.788Z,337.50
2019-05-13T09:01:33.765Z,365.63
2019-05-13T09:02:33.728Z,365.63
2019-05-13T09:03:33.708Z,371.25
2019-05-13T09:04:33.665Z,388.13
2019-05-13T09:05:33.632Z,365.63
2019-05-13T09:06:33.601Z,354.38
2019-05-13T09:07:33.580Z,365.63
2019-05-13T09:08:33.541Z,343.13
2019-05-13T09:09:33.506Z,348.75
2019-05-13T09:10:33.478Z,337.50
2019-05-13T09:11:33.444Z,337.50
2019-05-13T09:12:37.037Z,315.00
2019-05-13T09:13:33.378Z,343.13
2019-05-13T09:14:33.355Z,354.38
2019-05-13T09:15:33.332Z,365.63
2019-05-13T09:16:33.295Z,365.63
2019-05-13T09:17:33.259Z,365.63
2019-05-13T09:18:33.226Z,365.63
2019-05-13T09:19:33.191Z,354.38
2019-05-13T09:20:33.160Z,360.00
2019-05-13T09:21:33.139Z,354.38
2019-05-13T09:22:33.103Z,365.63
2019-05-13T09:23:33.069Z,343.13
2019-05-13T09:24:37.538Z,343.13
2019-05-13T09:25:33.015Z,360.00
2019-05-13T09:26:32.976Z,360.00
2019-05-13T09:27:32.950Z,360.00
2019-05-13T09:28:32.910Z,365.63
2019-05-13T09:29:32.884Z,365.63
2019-05-13T09:30:32.852Z,376.88
2019-05-13T09:31:32.825Z,382.50
2019-05-13T09:32:32.812Z,393.75
2019-05-13T09:33:32.938Z,399.38
2019-05-13T09:34:33.148Z,376.88
2019-05-13T09:35:32.701Z,371.25
2019-05-13T09:36:32.662Z,382.50
2019-05-13T09:37:32.642Z,388.13
2019-05-13T09:38:32.870Z,388.13
2019-05-13T09:39:32.687Z,382.50
2019-05-13T09:40:32.545Z,376.88
2019-05-13T09:41:38.487Z,309.38
2019-05-13T09:42:47.643Z,326.25
2019-05-13T09:43:32.456Z,371.25
2019-05-13T09:44:33.020Z,388.13
2019-05-13T09:45:32.393Z,388.13
2019-05-13T09:46:32.359Z,371.25
2019-05-13T09:47:32.374Z,388.13
2019-05-13T09:48:32.318Z,388.13
2019-05-13T09:49:33.085Z,393.75
2019-05-13T09:50:35.932Z,393.75
2019-05-13T09:51:32.533Z,382.50
2019-05-13T09:52:32.172Z,365.63
2019-05-13T09:53:32.668Z,365.63
2019-05-13T09:54:33.041Z,371.25
2019-05-13T09:55:32.657Z,348.75
2019-05-13T09:56:32.137Z,354.38
2019-05-13T09:57:32.302Z,337.50
2019-05-13T09:58:33.096Z,348.75
2019-05-13T09:59:32.203Z,337.50
2019-05-13T10:00:32.377Z,360.00
2019-05-13T10:01:32.206Z,348.75
2019-05-13T10:02:32.259Z,360.00
2019-05-13T10:03:33.134Z,360.00
2019-05-13T10:04:32.092Z,371.25
2019-05-13T10:05:31.821Z,371.25
2019-05-13T10:06:32.750Z,376.88
2019-05-13T10:07:32.038Z,376.88
2019-05-13T10:08:32.836Z,382.50
2019-05-13T10:09:32.739Z,382.50
2019-05-13T10:10:32.004Z,376.88
2019-05-13T10:11:31.605Z,382.50
2019-05-13T10:12:32.110Z,376.88
2019-05-13T10:13:32.048Z,376.88
2019-05-13T10:15:32.614Z,371.25
2019-05-13T10:16:31.657Z,371.25
2019-05-13T10:17:31.929Z,371.25
2019-05-13T10:19:32.206Z,371.25
2019-05-13T10:20:31.804Z,371.25
2019-05-13T10:21:32.685Z,371.25
2019-05-13T10:22:31.938Z,371.25
2019-05-13T10:23:32.959Z,376.88
2019-05-13T10:24:32.802Z,371.25
2019-05-13T10:25:31.262Z,371.25
2019-05-13T10:26:31.949Z,371.25
2019-05-13T10:27:32.437Z,371.25
2019-05-13T10:28:31.933Z,365.63
2019-05-13T10:29:32.119Z,371.25
2019-05-13T10:30:32.199Z,376.88
2019-05-13T10:31:31.486Z,376.88
2019-05-13T10:32:32.466Z,376.88
2019-05-13T10:33:31.971Z,376.88
2019-05-13T10:34:32.104Z,376.88
2019-05-13T10:35:31.659Z,376.88
2019-05-13T10:36:30.953Z,376.88
2019-05-13T10:37:30.888Z,376.88
2019-05-13T10:38:32.462Z,376.88
2019-05-13T10:39:30.827Z,343.13
2019-05-13T10:40:32.706Z,376.88
2019-05-13T10:41:33.222Z,376.88
2019-05-13T10:42:30.738Z,382.50
2019-05-13T10:43:31.608Z,382.50
2019-05-13T10:44:30.679Z,382.50
2019-05-13T10:45:33.263Z,388.13
2019-05-13T10:46:32.080Z,388.13
2019-05-13T10:47:30.573Z,388.13
2019-05-13T10:48:30.557Z,388.13
2019-05-13T10:49:32.986Z,388.13
2019-05-13T10:50:31.666Z,388.13
2019-05-13T10:51:32.644Z,388.13
2019-05-13T10:52:32.254Z,388.13
2019-05-13T10:53:32.027Z,388.13
2019-05-13T10:54:32.491Z,393.75
2019-05-13T10:55:32.410Z,393.75
2019-05-13T10:56:32.796Z,393.75
2019-05-13T10:57:31.928Z,393.75
2019-05-13T10:58:30.260Z,393.75
2019-05-13T10:59:30.215Z,393.75
2019-05-13T11:00:32.051Z,393.75
2019-05-13T11:01:32.731Z,393.75
2019-05-13T11:02:32.725Z,393.75
2019-05-13T11:03:32.875Z,399.38
2019-05-13T11:04:32.043Z,399.38
2019-05-13T11:05:32.451Z,399.38
2019-05-13T11:06:32.551Z,399.38
2019-05-13T11:07:32.040Z,399.38
2019-05-13T11:08:32.458Z,405.00
2019-05-13T11:09:32.629Z,405.00
2019-05-13T11:10:32.127Z,405.00
2019-05-13T11:11:32.058Z,405.00
2019-05-13T11:12:29.776Z,405.00
2019-05-13T11:13:49.663Z,416.25
2019-05-13T11:14:31.794Z,410.63
2019-05-13T11:15:32.728Z,416.25
2019-05-13T11:16:29.659Z,410.63
2019-05-13T11:17:31.250Z,416.25
2019-05-13T11:18:29.596Z,416.25
2019-05-13T11:19:34.307Z,421.88
2019-05-13T11:20:31.963Z,421.88
2019-05-13T11:21:31.620Z,416.25
2019-05-13T11:22:29.486Z,421.88
2019-05-13T11:23:31.906Z,421.88
2019-05-13T11:24:31.964Z,461.25
2019-05-13T11:25:29.402Z,511.88
2019-05-13T11:26:29.365Z,534.38
2019-05-13T11:27:32.184Z,545.63
2019-05-13T11:28:29.628Z,551.25
2019-05-13T11:29:31.515Z,568.13
2019-05-13T11:30:31.804Z,579.38
2019-05-13T11:31:32.556Z,590.63
2019-05-13T11:32:31.595Z,579.38
2019-05-13T11:33:31.563Z,568.13
2019-05-13T11:34:29.139Z,573.75
2019-05-13T11:35:31.343Z,579.38
2019-05-13T11:36:29.082Z,590.63
2019-05-13T11:37:29.061Z,596.25
2019-05-13T11:38:29.029Z,607.50
2019-05-13T11:39:28.999Z,624.38
2019-05-13T11:40:31.731Z,641.25
2019-05-13T11:41:28.933Z,658.13
2019-05-13T11:42:28.917Z,680.63
2019-05-13T11:43:28.888Z,697.50
2019-05-13T11:44:31.972Z,714.38
2019-05-13T11:45:31.401Z,731.25
2019-05-13T11:46:28.819Z,748.13
2019-05-13T11:47:28.782Z,765.00
2019-05-13T11:48:28.755Z,787.50
2019-05-13T11:49:31.444Z,804.38
2019-05-13T11:50:28.701Z,826.88
2019-05-13T11:51:28.673Z,866.25
2019-05-13T11:52:30.998Z,916.88
2019-05-13T11:53:34.468Z,984.38
2019-05-13T11:54:28.596Z,1068.75
2019-05-13T11:55:28.581Z,1181.25
2019-05-13T11:56:28.543Z,1293.75
2019-05-13T11:57:28.568Z,1411.88
2019-05-13T11:58:28.491Z,1625.63
2019-05-13T11:59:28.539Z,1878.75
2019-05-13T12:00:28.481Z,2503.13
2019-05-13T12:01:28.484Z,3279.38
2019-05-13T12:02:28.400Z,3903.75
2019-05-13T12:03:28.396Z,4438.13
2019-05-13T12:04:28.345Z,4230.00
2019-05-13T12:05:28.331Z,4066.88
2019-05-13T12:06:28.296Z,3926.25
2019-05-13T12:07:28.325Z,3729.38
2019-05-13T12:08:28.250Z,3729.38
2019-05-13T12:09:28.221Z,3780.00
2019-05-13T12:10:28.274Z,4207.50
2019-05-13T12:11:28.196Z,4871.25
2019-05-13T12:12:33.583Z,5225.63
2019-05-13T12:13:28.126Z,5765.63
2019-05-13T12:15:05.093Z,6457.50
2019-05-13T12:15:44.570Z,7087.50
2019-05-13T12:16:28.100Z,7756.88
2019-05-13T12:17:28.058Z,8122.50
2019-05-13T12:18:28.024Z,7734.38
2019-05-13T12:19:27.980Z,7441.88
2019-05-13T12:20:27.973Z,7228.13
2019-05-13T12:21:27.936Z,6907.50
2019-05-13T12:22:27.918Z,5793.75
2019-05-13T12:23:27.953Z,5040.00
2019-05-13T12:24:27.890Z,4848.75
2019-05-13T12:25:27.853Z,4713.75
2019-05-13T12:26:27.821Z,4393.13
2019-05-13T12:27:27.806Z,4280.63
2019-05-13T12:28:27.773Z,4252.50
2019-05-13T12:29:27.758Z,3931.88
2019-05-13T12:30:27.732Z,3729.38
2019-05-13T12:31:27.727Z,3605.63
2019-05-13T12:32:27.691Z,3369.38
2019-05-13T12:33:27.669Z,3380.63
2019-05-13T12:34:27.646Z,3442.50
2019-05-13T12:35:27.622Z,3386.25
2019-05-13T12:36:27.596Z,3335.63
2019-05-13T12:37:27.587Z,3262.50
2019-05-13T12:38:27.557Z,3256.88
2019-05-13T12:39:27.560Z,3093.75
2019-05-13T12:40:27.506Z,2925.00
2019-05-13T12:41:27.492Z,2930.63
2019-05-13T12:42:27.466Z,2885.63
2019-05-13T12:43:27.494Z,2947.50